createdAt,value
2019-04-23T00:01:36.738Z,34.70
2019-04-23T00:04:08.554Z,35.69
2019-04-23T00:06:42.957Z,35.68
2019-04-23T00:09:13.077Z,35.68
2019-04-23T00:11:41.515Z,35.28
2019-04-23T00:14:15.105Z,36.54
2019-04-23T00:16:47.395Z,37.53
2019-04-23T00:19:10.293Z,36.29
2019-04-23T00:21:55.078Z,36.63
2019-04-23T00:25:07.765Z,38.44
2019-04-23T00:27:23.956Z,36.52
2019-04-23T00:29:50.518Z,35.36
2019-04-23T00:32:15.654Z,37.01
2019-04-23T00:34:47.996Z,37.20
2019-04-23T00:37:24.329Z,37.10
2019-04-23T00:39:46.778Z,37.44
2019-04-23T00:42:16.842Z,38.06
2019-04-23T00:44:46.126Z,37.87
2019-04-23T00:47:19.292Z,38.53
2019-04-23T00:49:53.282Z,36.96
2019-04-23T00:52:23.692Z,38.64
2019-04-23T00:54:51.917Z,36.69
2019-04-23T00:57:24.262Z,36.45
2019-04-23T00:59:57.752Z,40.21
2019-04-23T01:02:16.612Z,38.00
2019-04-23T01:04:48.045Z,36.53
2019-04-23T01:07:18.940Z,36.53
2019-04-23T01:12:31.993Z,36.70
2019-04-23T01:14:57.377Z,35.41
2019-04-23T01:17:33.714Z,37.12
2019-04-23T01:20:04.776Z,36.61
2019-04-23T01:22:12.639Z,35.58
2019-04-23T01:24:48.368Z,35.58
2019-04-23T01:28:04.311Z,36.17
2019-04-23T01:30:18.065Z,36.27
2019-04-23T01:32:43.679Z,35.16
2019-04-23T01:35:17.625Z,36.66
2019-04-23T01:37:52.327Z,36.21
2019-04-23T01:40:20.276Z,36.21
2019-04-23T01:43:00.230Z,35.98
2019-04-23T01:45:20.207Z,35.52
2019-04-23T01:47:50.067Z,36.51
2019-04-23T01:52:53.932Z,35.58
2019-04-23T01:55:21.352Z,36.23
2019-04-23T01:57:58.180Z,35.48
2019-04-23T02:00:24.190Z,36.13
2019-04-23T02:02:55.428Z,35.36
2019-04-23T02:05:30.621Z,35.36
2019-04-23T02:10:32.943Z,36.51
2019-04-23T02:12:57.075Z,36.83
2019-04-23T02:15:23.077Z,36.83
2019-04-23T02:18:02.146Z,36.31
2019-04-23T02:41:04.573Z,37.87
2019-04-23T02:43:29.706Z,37.76
2019-04-23T02:48:24.696Z,38.36
2019-04-23T02:56:04.371Z,38.22
2019-04-23T02:58:39.000Z,37.59
2019-04-23T03:01:18.300Z,37.59
2019-04-23T03:03:33.274Z,38.27
2019-04-23T03:05:57.346Z,38.61
2019-04-23T03:19:02.927Z,37.97
2019-04-23T03:39:37.444Z,39.06
2019-04-23T03:41:53.926Z,39.69
2019-04-23T03:44:29.057Z,40.78
2019-04-23T03:46:55.323Z,40.57
2019-04-23T03:49:29.995Z,40.57
2019-04-23T03:59:37.172Z,43.30
2019-04-23T04:02:15.494Z,40.59
2019-04-23T04:07:28.362Z,39.52
2019-04-23T04:09:36.858Z,39.52
2019-04-23T04:12:05.995Z,40.71
2019-04-23T04:14:38.119Z,41.08
2019-04-23T04:19:40.037Z,40.94
2019-04-23T04:24:34.676Z,42.85
2019-04-23T04:27:05.424Z,41.63
2019-04-23T04:32:02.659Z,41.71
2019-04-23T04:39:43.619Z,42.07
2019-04-23T04:42:04.619Z,41.62
2019-04-23T04:52:34.545Z,41.63
2019-04-23T04:54:47.793Z,43.12
2019-04-23T04:57:10.400Z,41.53
2019-04-23T04:59:51.650Z,42.30
2019-04-23T05:02:14.626Z,42.30
2019-04-23T05:04:48.302Z,42.20
2019-04-23T05:07:09.306Z,42.20
2019-04-23T05:09:48.445Z,41.75
2019-04-23T05:12:19.081Z,43.71
2019-04-23T05:14:58.749Z,43.19
2019-04-23T05:17:30.207Z,43.19
2019-04-23T05:22:22.625Z,40.17
2019-04-23T05:24:45.833Z,40.88
2019-04-23T05:27:29.033Z,40.88
2019-04-23T05:29:53.163Z,41.57
2019-04-23T05:32:18.858Z,41.57
2019-04-23T05:34:48.623Z,42.02
2019-04-23T05:37:23.113Z,43.57
2019-04-23T05:39:52.170Z,40.96
2019-04-23T05:42:20.127Z,42.00
2019-04-23T05:44:50.690Z,42.39
2019-04-23T05:47:25.490Z,43.31
2019-04-23T05:49:54.478Z,44.23
2019-04-23T05:52:27.834Z,41.69
2019-04-23T05:54:56.281Z,42.95
2019-04-23T05:57:20.691Z,42.30
2019-04-23T06:02:26.516Z,40.98
2019-04-23T06:04:55.203Z,42.44
2019-04-23T06:09:59.510Z,41.78
2019-04-23T06:12:25.394Z,37.85
2019-04-23T06:14:57.588Z,35.93
2019-04-23T06:17:25.105Z,36.74
2019-04-23T06:20:03.170Z,34.02
2019-04-23T06:24:57.891Z,31.00
2019-04-23T06:29:57.006Z,28.47
2019-04-23T06:32:34.245Z,28.68
2019-04-23T06:34:56.844Z,27.03
2019-04-23T06:39:59.839Z,28.42
2019-04-23T06:42:29.579Z,25.75
2019-04-23T06:44:59.578Z,27.09
2019-04-23T06:47:28.802Z,29.66
2019-04-23T06:49:58.146Z,30.31
2019-04-23T06:52:25.492Z,30.29
2019-04-23T06:55:09.351Z,30.58
2019-04-23T06:57:42.620Z,30.75
2019-04-23T07:00:08.365Z,28.08
2019-04-23T07:02:39.080Z,27.05
2019-04-23T07:05:14.544Z,29.52
2019-04-23T07:10:11.416Z,28.39
2019-04-23T07:15:25.045Z,28.85
2019-04-23T07:17:34.298Z,28.17
2019-04-23T07:20:13.158Z,29.21
2019-04-23T07:22:34.671Z,28.49
2019-04-23T07:25:15.927Z,28.13
2019-04-23T07:27:33.319Z,28.33
2019-04-23T07:30:13.118Z,29.60
2019-04-23T07:32:44.712Z,26.93
2019-04-23T07:35:14.197Z,24.69
2019-04-23T07:37:47.501Z,25.50
2019-04-23T07:40:26.990Z,24.05
2019-04-23T07:43:03.553Z,28.44
2019-04-23T07:45:53.061Z,26.32
2019-04-23T07:48:38.850Z,24.36
2019-04-23T07:50:55.258Z,25.53
2019-04-23T07:53:22.877Z,25.83
2019-04-23T07:58:29.271Z,23.87
2019-04-23T08:01:09.581Z,24.87
2019-04-23T08:05:55.329Z,24.73
2019-04-23T08:08:26.823Z,22.92
2019-04-23T08:13:53.964Z,22.98
2019-04-23T08:16:31.174Z,24.50
2019-04-23T08:19:25.114Z,23.97
2019-04-23T08:21:18.212Z,23.62
2019-04-23T08:24:06.587Z,23.87
2019-04-23T08:26:59.675Z,23.85
2019-04-23T08:29:45.875Z,24.43
2019-04-23T08:32:12.032Z,24.86
2019-04-23T08:37:09.296Z,23.29
2019-04-23T08:45:28.570Z,22.83
2019-04-23T08:48:18.761Z,23.42
2019-04-23T08:50:46.541Z,20.93
2019-04-23T08:53:31.286Z,21.21
2019-04-23T08:58:19.119Z,20.86
2019-04-23T09:03:31.265Z,22.62
2019-04-23T09:10:55.834Z,20.78
2019-04-23T09:15:51.732Z,23.65
2019-04-23T09:18:21.394Z,21.24
2019-04-23T09:20:52.886Z,20.38
2019-04-23T09:23:31.972Z,20.47
2019-04-23T09:25:54.166Z,21.20
2019-04-23T09:28:33.202Z,21.07
2019-04-23T09:30:54.193Z,21.15
2019-04-23T09:36:42.121Z,22.56
2019-04-23T09:39:27.718Z,22.43
2019-04-23T09:45:38.957Z,22.33
2019-04-23T09:48:04.683Z,25.31
2019-04-23T09:50:46.887Z,23.62
2019-04-23T09:55:37.429Z,21.52
2019-04-23T09:58:16.709Z,23.67
2019-04-23T10:00:40.701Z,25.34
2019-04-23T10:03:03.558Z,24.41
2019-04-23T10:05:28.893Z,23.48
2019-04-23T10:07:59.899Z,23.44
2019-04-23T10:10:18.667Z,23.45
2019-04-23T10:12:48.208Z,21.59
2019-04-23T10:15:24.563Z,24.04
2019-04-23T10:17:49.864Z,23.60
2019-04-23T10:20:20.476Z,23.82
2019-04-23T10:22:50.443Z,24.75
2019-04-23T10:25:19.406Z,25.12
2019-04-23T10:27:55.129Z,25.70
2019-04-23T10:30:19.659Z,24.09
2019-04-23T10:32:49.533Z,25.12
2019-04-23T10:35:28.595Z,23.63
2019-04-23T10:37:54.719Z,21.57
2019-04-23T10:40:26.267Z,22.40
2019-04-23T10:42:51.505Z,23.82
2019-04-23T10:45:53.435Z,22.65
2019-04-23T10:49:17.783Z,22.75
2019-04-23T10:51:33.785Z,22.62
2019-04-23T10:54:15.850Z,21.92
2019-04-23T10:56:42.555Z,22.98
2019-04-23T10:59:12.024Z,24.61
2019-04-23T11:01:45.509Z,23.21
2019-04-23T11:07:09.957Z,23.85
2019-04-23T11:09:32.888Z,23.68
2019-04-23T11:11:53.251Z,21.76
2019-04-23T11:14:25.159Z,23.82
2019-04-23T11:16:57.652Z,22.41
2019-04-23T11:19:25.748Z,23.62
2019-04-23T11:24:38.154Z,23.38
2019-04-23T11:27:01.862Z,23.15
2019-04-23T11:29:26.891Z,20.41
2019-04-23T11:32:06.779Z,23.41
2019-04-23T11:37:14.482Z,22.37
2019-04-23T11:39:31.175Z,23.39
2019-04-23T11:41:59.835Z,23.99
2019-04-23T11:54:30.770Z,24.44
2019-04-23T11:57:22.504Z,26.67
2019-04-23T12:02:06.343Z,28.02
2019-04-23T12:05:03.777Z,29.12
2019-04-23T12:07:36.094Z,28.58
2019-04-23T12:10:22.194Z,26.86
2019-04-23T12:15:18.322Z,29.53
2019-04-23T12:23:03.036Z,31.33
2019-04-23T12:25:40.706Z,29.54
2019-04-23T12:27:44.074Z,29.00
2019-04-23T12:30:27.391Z,28.85
2019-04-23T12:40:46.030Z,29.13
2019-04-23T12:45:43.889Z,30.39
2019-04-23T12:53:29.419Z,29.62
2019-04-23T12:55:43.767Z,28.85
2019-04-23T13:00:52.737Z,28.85
2019-04-23T13:03:34.171Z,29.36
2019-04-23T13:05:46.079Z,29.46
2019-04-23T13:10:49.597Z,31.01
2019-04-23T13:15:51.960Z,28.22
2019-04-23T13:18:31.892Z,29.75
2019-04-23T13:20:58.720Z,30.20
2019-04-23T13:23:30.738Z,31.11
2019-04-23T13:25:57.072Z,31.42
2019-04-23T13:28:32.006Z,32.90
2019-04-23T13:31:09.429Z,32.06
2019-04-23T13:33:38.887Z,33.88
2019-04-23T13:36:12.036Z,30.23
2019-04-23T13:41:08.432Z,29.31
2019-04-23T13:43:40.486Z,32.30
2019-04-23T13:46:13.199Z,31.75
2019-04-23T13:48:29.991Z,30.17
2019-04-23T13:53:49.729Z,31.30
2019-04-23T13:56:11.159Z,31.23
2019-04-23T13:58:50.417Z,29.48
2019-04-23T14:03:45.187Z,31.04
2019-04-23T14:09:22.569Z,31.64
2019-04-23T14:11:19.419Z,31.55
2019-04-23T14:13:51.024Z,30.66
2019-04-23T14:18:56.169Z,34.17
2019-04-23T14:21:20.411Z,32.78
2019-04-23T14:24:04.546Z,32.13
2019-04-23T14:26:25.541Z,30.35
2019-04-23T14:36:19.471Z,31.63
2019-04-23T14:38:49.561Z,32.34
2019-04-23T14:43:56.417Z,32.62
2019-04-23T14:46:38.480Z,31.75
2019-04-23T14:49:07.087Z,29.99
2019-04-23T14:51:34.216Z,29.29
2019-04-23T14:53:48.441Z,29.75
2019-04-23T14:56:30.162Z,31.80
2019-04-23T15:03:50.517Z,30.88
2019-04-23T15:06:27.763Z,28.85
2019-04-23T15:11:45.353Z,30.55
2019-04-23T15:13:58.525Z,30.50
2019-04-23T15:16:31.611Z,33.36
2019-04-23T15:19:19.914Z,31.70
2019-04-23T15:22:13.507Z,30.32
2019-04-23T15:28:54.481Z,31.22
2019-04-23T15:34:15.847Z,31.73
2019-04-23T15:51:52.069Z,33.31
2019-04-23T15:54:19.642Z,31.68
2019-04-23T15:56:51.991Z,30.25
2019-04-23T16:01:42.006Z,30.85
2019-04-23T16:03:51.723Z,30.32
2019-04-23T16:06:23.533Z,31.55
2019-04-23T16:09:12.663Z,32.48
2019-04-23T16:17:08.084Z,33.47
2019-04-23T16:19:24.470Z,31.75
2019-04-23T16:22:01.609Z,31.47
2019-04-23T16:24:20.518Z,31.27
2019-04-23T16:27:04.416Z,31.55
2019-04-23T16:29:38.030Z,31.53
2019-04-23T16:32:04.044Z,33.26
2019-04-23T16:34:39.387Z,33.41
2019-04-23T16:37:23.236Z,33.65
2019-04-23T16:39:56.356Z,32.47
2019-04-23T16:42:25.197Z,31.63
2019-04-23T16:45:07.568Z,31.96
2019-04-23T16:50:00.272Z,33.21
2019-04-23T16:52:21.545Z,33.98
2019-04-23T16:54:54.961Z,34.21
2019-04-23T16:57:29.018Z,33.35
2019-04-23T17:00:07.297Z,32.75
2019-04-23T17:04:57.937Z,32.65
2019-04-23T17:07:20.331Z,33.22
2019-04-23T17:10:12.737Z,32.90
2019-04-23T17:12:17.604Z,34.24
2019-04-23T17:15:02.773Z,32.14
2019-04-23T17:17:25.335Z,33.81
2019-04-23T17:19:59.397Z,34.37
2019-04-23T17:22:26.148Z,32.78
2019-04-23T17:25:07.467Z,33.63
2019-04-23T17:27:34.909Z,34.74
2019-04-23T17:30:06.452Z,34.24
2019-04-23T17:32:39.277Z,35.39
2019-04-23T17:37:41.328Z,34.15
2019-04-23T17:40:24.549Z,33.96
2019-04-23T17:42:55.420Z,34.63
2019-04-23T17:48:08.777Z,35.26
2019-04-23T17:50:44.264Z,35.75
2019-04-23T17:55:54.595Z,34.73
2019-04-23T17:58:19.835Z,33.90
2019-04-23T18:00:55.247Z,33.67
2019-04-23T18:03:13.079Z,36.25
2019-04-23T18:05:54.415Z,34.09
2019-04-23T18:08:19.373Z,34.55
2019-04-23T18:10:59.485Z,35.59
2019-04-23T18:13:20.976Z,33.14
2019-04-23T18:16:04.505Z,32.80
2019-04-23T18:18:31.064Z,35.56
2019-04-23T18:21:32.751Z,34.66
2019-04-23T18:24:16.856Z,32.71
2019-04-23T18:26:56.875Z,34.64
2019-04-23T18:29:35.803Z,32.60
2019-04-23T18:32:05.863Z,34.07
2019-04-23T18:34:47.121Z,34.08
2019-04-23T18:37:01.830Z,33.17
2019-04-23T18:39:32.922Z,35.05
2019-04-23T18:42:13.716Z,32.89
2019-04-23T18:44:36.327Z,35.55
2019-04-23T18:47:07.673Z,32.74
2019-04-23T18:49:42.561Z,33.59
2019-04-23T18:52:10.052Z,34.58
2019-04-23T18:54:37.007Z,33.54
2019-04-23T18:57:13.048Z,33.75
2019-04-23T18:59:47.471Z,34.57
2019-04-23T19:02:37.024Z,35.64
2019-04-23T19:07:53.283Z,34.53
2019-04-23T19:10:48.301Z,34.34
2019-04-23T19:13:18.872Z,34.41
2019-04-23T19:18:19.213Z,33.66
2019-04-23T19:23:35.197Z,34.08
2019-04-23T19:25:45.452Z,32.96
2019-04-23T19:28:34.631Z,33.07
2019-04-23T19:31:16.341Z,33.03
2019-04-23T19:33:42.500Z,33.42
2019-04-23T19:38:32.976Z,34.47
2019-04-23T19:43:33.657Z,33.51
2019-04-23T19:48:45.610Z,35.13
2019-04-23T19:51:11.436Z,34.63
2019-04-23T19:58:38.489Z,33.69
2019-04-23T20:01:16.708Z,34.33
2019-04-23T20:09:10.204Z,34.35
2019-04-23T20:11:08.043Z,34.55
2019-04-23T20:13:45.354Z,34.30
2019-04-23T20:16:10.866Z,33.98
2019-04-23T20:21:03.311Z,34.61
2019-04-23T20:29:10.411Z,33.92
2019-04-23T20:32:53.939Z,33.58
2019-04-23T20:39:09.609Z,33.81
2019-04-23T20:42:07.051Z,34.62
2019-04-23T20:44:21.728Z,35.10
2019-04-23T20:47:03.325Z,34.88
2019-04-23T20:49:31.755Z,34.12
2019-04-23T20:52:00.826Z,34.36
2019-04-23T20:54:35.715Z,35.04
2019-04-23T20:57:11.926Z,34.34
2019-04-23T20:59:49.832Z,34.55
2019-04-23T21:02:42.112Z,34.81
2019-04-23T21:04:57.219Z,34.85
2019-04-23T21:07:37.716Z,36.51
2019-04-23T21:10:18.082Z,35.32
2019-04-23T21:12:43.213Z,35.27
2019-04-23T21:15:05.397Z,35.01
2019-04-23T21:17:35.617Z,34.94
2019-04-23T21:22:32.015Z,34.29
2019-04-23T21:24:51.273Z,34.35
2019-04-23T21:27:55.330Z,33.60
2019-04-23T21:30:48.965Z,34.43
2019-04-23T21:33:11.973Z,35.77
2019-04-23T21:38:46.384Z,35.85
2019-04-23T21:41:41.701Z,34.91
2019-04-23T21:46:40.264Z,34.29
2019-04-23T21:53:55.458Z,37.59
2019-04-23T21:56:31.354Z,37.47
2019-04-23T21:59:07.175Z,36.49
2019-04-23T22:01:36.679Z,37.74
2019-04-23T22:06:40.822Z,38.73
2019-04-23T22:14:13.080Z,35.93
2019-04-23T22:16:47.015Z,37.41
2019-04-23T22:21:40.843Z,36.88
2019-04-23T22:26:36.291Z,35.60
2019-04-23T22:29:14.580Z,37.52
2019-04-23T22:34:09.000Z,37.26
2019-04-23T22:36:43.179Z,37.27
2019-04-23T22:39:11.527Z,36.40
2019-04-23T22:41:46.113Z,35.48
2019-04-23T22:49:25.194Z,38.86
2019-04-23T22:52:06.492Z,38.20
2019-04-23T22:54:14.145Z,37.62
2019-04-23T22:56:50.068Z,39.46
2019-04-23T22:59:37.755Z,38.56
2019-04-23T23:01:57.296Z,38.34
2019-04-23T23:04:41.026Z,39.54
2019-04-23T23:11:54.259Z,37.07
2019-04-23T23:14:22.429Z,37.14
2019-04-23T23:16:50.421Z,36.82
2019-04-23T23:22:02.032Z,36.66
2019-04-23T23:24:18.256Z,37.49
2019-04-23T23:29:19.595Z,39.38
2019-04-23T23:34:27.763Z,39.68
2019-04-23T23:37:02.168Z,39.06
2019-04-23T23:39:29.251Z,40.87
2019-04-23T23:41:58.951Z,41.23
2019-04-23T23:47:06.047Z,38.17
2019-04-23T23:49:28.417Z,39.03
2019-04-23T23:51:57.664Z,40.32
2019-04-23T23:54:45.201Z,38.85
2019-04-23T23:57:04.089Z,39.12
